Time;durP1;ratioP1;P1;durP2;ratioP2;P2;SDS_P1;SDS_P2;PMS_P1;PMS_P2;Temp;Humidity;BMP_temperature;BMP_pressure;BME280_temperature;BME280_humidity;BME280_pressure;Samples;Min_cycle;Max_cycle;Signal;HPM_P1;HPM_P2
2023/01/21 00:00:04;;;;;;;57.42;29.67;;;-1.00;99.90;;;;;;5093792;28;20615;-46
2023/01/21 00:02:30;;;;;;;63.33;30.45;;;-1.10;99.90;;;;;;5093552;28;20414;-46
2023/01/21 00:04:55;;;;;;;53.58;29.17;;;-1.10;99.90;;;;;;5074818;28;20062;-46
2023/01/21 00:07:21;;;;;;;63.63;31.92;;;-1.10;99.90;;;;;;5092979;28;20079;-47
2023/01/21 00:09:47;;;;;;;60.70;29.67;;;-1.00;99.90;;;;;;5074529;28;20166;-46
2023/01/21 00:12:14;;;;;;;54.40;29.17;;;-0.90;99.90;;;;;;5075763;28;20083;-47
2023/01/21 00:14:39;;;;;;;63.63;32.95;;;-0.90;99.90;;;;;;5093522;28;20044;-47
2023/01/21 00:17:05;;;;;;;66.32;32.00;;;-1.00;99.90;;;;;;5093303;28;20394;-47
2023/01/21 00:19:31;;;;;;;62.67;31.65;;;-1.10;99.90;;;;;;5091528;28;20170;-46
2023/01/21 00:21:56;;;;;;;67.80;33.67;;;-1.00;99.90;;;;;;5084672;28;20185;-46
2023/01/21 00:24:23;;;;;;;67.88;34.78;;;-1.10;99.90;;;;;;5075828;28;20368;-46
2023/01/21 00:26:49;;;;;;;71.70;35.35;;;-1.10;99.90;;;;;;5075239;28;20571;-47
2023/01/21 00:29:15;;;;;;;65.80;35.53;;;-1.20;99.90;;;;;;5092802;28;20104;-48
2023/01/21 00:31:41;;;;;;;68.65;34.33;;;-1.40;99.90;;;;;;5074484;28;20104;-47
2023/01/21 00:34:06;;;;;;;63.08;32.45;;;-1.40;99.90;;;;;;5093562;28;20040;-46
2023/01/21 00:36:32;;;;;;;65.35;31.92;;;-1.40;99.90;;;;;;5093479;28;20074;-45
2023/01/21 00:38:58;;;;;;;66.20;32.70;;;-1.50;99.90;;;;;;5092515;28;20473;-46
2023/01/21 00:41:25;;;;;;;60.85;32.10;;;-1.70;99.90;;;;;;5094026;28;20052;-45
2023/01/21 00:43:51;;;;;;;64.78;32.33;;;-1.70;99.90;;;;;;5093932;28;20048;-48
2023/01/21 00:46:17;;;;;;;64.72;33.22;;;-1.60;99.90;;;;;;5074802;28;20116;-45
2023/01/21 00:48:43;;;;;;;63.05;29.88;;;-1.70;99.90;;;;;;5057563;28;20047;-47
2023/01/21 00:51:09;;;;;;;62.70;31.25;;;-1.80;99.90;;;;;;5093381;28;20063;-45
2023/01/21 00:53:37;;;;;;;59.97;31.58;;;-1.80;99.90;;;;;;5093732;28;20305;-47
2023/01/21 00:56:05;;;;;;;70.93;33.30;;;-1.70;99.90;;;;;;5097210;28;20489;-46
2023/01/21 00:58:32;;;;;;;63.55;32.08;;;-1.70;99.90;;;;;;5096044;28;20233;-46
2023/01/21 01:01:06;;;;;;;59.83;31.25;;;-1.60;99.90;;;;;;5097206;28;20051;-47
2023/01/21 01:03:33;;;;;;;60.65;30.98;;;-1.70;99.90;;;;;;5096751;28;20078;-46
2023/01/21 01:06:08;;;;;;;63.33;31.98;;;-1.70;99.90;;;;;;5097711;28;20118;-45
2023/01/21 01:08:34;;;;;;;63.58;31.73;;;-1.80;99.90;;;;;;5065683;28;20058;-47
2023/01/21 01:10:59;;;;;;;57.95;29.85;;;-1.60;99.90;;;;;;5078991;28;20039;-45
2023/01/21 01:13:26;;;;;;;61.22;31.38;;;-1.80;99.90;;;;;;5097664;28;20044;-45
2023/01/21 01:15:54;;;;;;;68.10;32.35;;;-1.80;99.90;;;;;;5096657;28;20047;-46
2023/01/21 01:18:21;;;;;;;61.58;30.98;;;-1.80;99.90;;;;;;5095399;28;20389;-48
2023/01/21 01:20:47;;;;;;;61.15;30.70;;;-1.80;99.90;;;;;;5094996;28;20506;-46
2023/01/21 01:23:13;;;;;;;60.72;30.60;;;-1.70;99.90;;;;;;5097539;28;20054;-45
2023/01/21 01:25:39;;;;;;;58.55;31.17;;;-1.80;99.90;;;;;;5097027;28;20171;-47
2023/01/21 01:28:04;;;;;;;61.28;31.65;;;-1.70;99.90;;;;;;5095861;28;20488;-46
2023/01/21 01:30:30;;;;;;;65.88;31.90;;;-1.70;99.90;;;;;;5096501;28;20039;-46
2023/01/21 01:32:56;;;;;;;64.03;31.83;;;-1.60;99.90;;;;;;5097106;28;20055;-46
2023/01/21 01:35:22;;;;;;;64.00;31.35;;;-1.60;99.90;;;;;;5078531;28;20401;-46
2023/01/21 01:37:47;;;;;;;64.00;32.03;;;-1.70;99.90;;;;;;5096753;28;20476;-45
2023/01/21 01:40:13;;;;;;;69.00;34.85;;;-1.70;99.90;;;;;;5097573;28;20537;-47
2023/01/21 01:42:39;;;;;;;67.22;33.92;;;-1.70;99.90;;;;;;5078692;28;20585;-45
2023/01/21 01:45:15;;;;;;;62.10;31.42;;;-1.60;99.90;;;;;;5078891;28;20503;-45
2023/01/21 01:47:58;;;;;;;56.28;28.00;;;-1.60;99.90;;;;;;5095367;28;20162;-45
2023/01/21 01:50:29;;;;;;;50.10;27.25;;;-1.60;99.90;;;;;;5077236;28;20055;-45
2023/01/21 01:52:58;;;;;;;56.88;28.80;;;-1.70;99.90;;;;;;5096683;28;20321;-44
2023/01/21 01:55:24;;;;;;;59.17;27.33;;;-1.80;99.90;;;;;;5096836;28;20048;-45
2023/01/21 01:57:54;;;;;;;54.42;26.88;;;-1.90;99.90;;;;;;5094972;28;20413;-47
2023/01/21 02:00:20;;;;;;;59.42;28.95;;;-1.80;99.90;;;;;;5096569;28;20120;-46
2023/01/21 02:03:43;;;;;;;51.30;28.92;;;-1.90;99.90;;;;;;5096979;28;20044;-46
2023/01/21 02:05:36;;;;;;;54.10;28.95;;;-1.90;99.90;;;;;;5095695;28;20059;-46
2023/01/21 02:08:02;;;;;;;61.15;31.25;;;-2.00;99.90;;;;;;5094687;28;20044;-46
2023/01/21 02:10:30;;;;;;;59.25;29.73;;;-1.90;99.90;;;;;;5077212;28;20489;-45
2023/01/21 02:12:56;;;;;;;63.72;30.52;;;-1.90;99.90;;;;;;5095952;28;20057;-44
2023/01/21 02:15:34;;;;;;;66.80;32.25;;;-2.00;99.90;;;;;;5096024;28;20047;-45
2023/01/21 02:18:13;;;;;;;59.85;32.45;;;-1.90;99.90;;;;;;5094864;28;20101;-45
2023/01/21 02:21:08;;;;;;;60.97;31.20;;;-1.90;99.90;;;;;;5095721;28;20047;-46
2023/01/21 02:23:42;;;;;;;63.63;32.30;;;-2.00;99.90;;;;;;4995895;28;20084;-45
2023/01/21 02:26:36;;;;;;;62.55;31.75;;;-1.90;99.90;;;;;;4996512;28;20083;-45
2023/01/21 02:29:18;;;;;;;57.75;30.98;;;-1.90;99.90;;;;;;5011641;28;20049;-45
2023/01/21 02:31:56;;;;;;;62.42;31.15;;;-1.90;99.90;;;;;;5013744;28;20067;-45
2023/01/21 02:34:58;;;;;;;60.75;31.10;;;-1.90;99.90;;;;;;5002433;28;20057;-45
2023/01/21 02:37:33;;;;;;;63.55;32.28;;;-1.90;99.90;;;;;;4933174;29;20059;-46
2023/01/21 02:40:05;;;;;;;63.92;32.80;;;-1.70;99.90;;;;;;4934056;29;20134;-45
2023/01/21 02:42:46;;;;;;;58.90;32.55;;;-1.80;99.90;;;;;;4934416;29;20063;-46
2023/01/21 02:45:40;;;;;;;62.42;32.75;;;-1.70;99.90;;;;;;4934829;29;20063;-45
2023/01/21 02:48:13;;;;;;;;;;;-1.80;99.90;;;;;;4931376;29;20063;-46
2023/01/21 02:50:47;;;;;;;56.13;29.52;;;-1.80;99.90;;;;;;4923497;29;20294;-47
2023/01/21 02:53:26;;;;;;;62.75;30.85;;;-1.80;99.90;;;;;;4914587;29;20187;-47
2023/01/21 02:55:54;;;;;;;52.35;26.33;;;-1.90;99.90;;;;;;4915030;29;20533;-46
2023/01/21 02:58:27;;;;;;;52.53;26.83;;;-1.80;99.90;;;;;;4913627;29;20048;-47
2023/01/21 03:01:27;;;;;;;49.80;25.75;;;-1.80;99.90;;;;;;4944931;28;20068;-46
2023/01/21 03:04:01;;;;;;;52.40;27.02;;;-2.00;99.90;;;;;;4961136;28;20054;-45
2023/01/21 03:06:51;;;;;;;59.65;30.23;;;-1.90;99.90;;;;;;4969915;28;20129;-47
2023/01/21 03:09:29;;;;;;;66.32;32.15;;;-1.90;99.90;;;;;;4956197;28;20073;-46
2023/01/21 03:12:20;;;;;;;59.97;29.45;;;-1.80;99.90;;;;;;4972477;28;20046;-48
2023/01/21 03:18:03;;;;;;;59.72;27.52;;;-1.90;99.90;;;;;;5092999;28;20895;-45
2023/01/21 03:20:36;;;;;;;59.00;29.08;;;-1.70;99.90;;;;;;5073033;28;20060;-46
2023/01/21 03:23:07;;;;;;;60.05;30.80;;;-1.70;99.90;;;;;;5091681;28;20047;-45
2023/01/21 03:25:33;;;;;;;67.40;32.78;;;-1.70;99.90;;;;;;5094517;28;20172;-48
2023/01/21 03:28:03;;;;;;;81.28;35.92;;;-1.60;99.90;;;;;;5093598;28;20058;-46
2023/01/21 03:30:34;;;;;;;64.68;33.30;;;-1.60;99.90;;;;;;5094972;28;20569;-46
2023/01/21 03:33:01;;;;;;;69.30;32.95;;;-1.50;99.90;;;;;;5076509;28;20513;-45
2023/01/21 03:35:39;;;;;;;61.85;31.80;;;-1.50;99.90;;;;;;5076162;28;20446;-48
2023/01/21 03:38:30;;;;;;;64.78;32.53;;;-1.50;99.90;;;;;;5092790;28;20048;-46
2023/01/21 03:41:16;;;;;;;63.67;30.85;;;-1.60;99.90;;;;;;5031012;28;20060;-45
2023/01/21 03:43:43;;;;;;;67.25;32.83;;;-1.60;99.90;;;;;;5030702;28;20059;-46
2023/01/21 03:46:15;;;;;;;65.32;32.85;;;-1.60;99.90;;;;;;4997900;28;20515;-46
2023/01/21 03:48:53;;;;;;;67.15;32.33;;;-1.60;99.90;;;;;;5029151;28;20350;-45
2023/01/21 03:51:24;;;;;;;56.60;30.80;;;-1.80;99.90;;;;;;5009365;28;20124;-45
2023/01/21 03:53:58;;;;;;;63.65;32.85;;;-1.80;99.90;;;;;;5030603;28;20049;-48
2023/01/21 03:56:25;;;;;;;63.10;31.83;;;-1.90;99.90;;;;;;5030870;28;20597;-45
2023/01/21 03:58:51;;;;;;;61.72;30.42;;;-1.80;99.90;;;;;;5028749;28;20135;-47
2023/01/21 04:01:17;;;;;;;64.22;32.17;;;-1.90;99.90;;;;;;5014489;28;20051;-47
2023/01/21 04:03:42;;;;;;;61.35;30.40;;;-1.90;99.90;;;;;;5029963;28;20474;-48
2023/01/21 04:06:17;;;;;;;59.92;30.00;;;-1.80;99.90;;;;;;5014031;28;20083;-45
2023/01/21 04:08:43;;;;;;;64.35;31.02;;;-2.10;99.90;;;;;;5028732;28;20045;-47
2023/01/21 04:11:09;;;;;;;65.05;30.90;;;-2.10;99.90;;;;;;5029617;28;21096;-47
2023/01/21 04:13:35;;;;;;;59.42;30.63;;;-2.10;99.90;;;;;;5030432;28;20171;-47
2023/01/21 04:16:01;;;;;;;60.13;30.48;;;-2.00;99.90;;;;;;5030028;28;20140;-45
2023/01/21 04:18:27;;;;;;;66.97;29.77;;;-2.00;99.90;;;;;;5062550;28;20537;-45
2023/01/21 04:20:53;;;;;;;66.40;31.90;;;-1.90;99.90;;;;;;5093843;28;20476;-45
2023/01/21 04:23:18;;;;;;;65.63;32.20;;;-1.90;99.90;;;;;;5094033;28;20047;-46
2023/01/21 04:25:49;;;;;;;61.60;31.17;;;-1.80;99.90;;;;;;5094038;28;20052;-46
2023/01/21 04:28:15;;;;;;;71.00;33.10;;;-1.90;99.90;;;;;;5093332;28;20591;-45
2023/01/21 04:30:41;;;;;;;69.13;31.80;;;-1.80;99.90;;;;;;5097059;28;20035;-46
2023/01/21 04:33:07;;;;;;;69.53;33.15;;;-1.70;99.90;;;;;;5097883;28;20118;-46
2023/01/21 04:35:35;;;;;;;63.15;33.38;;;-1.70;99.90;;;;;;5097708;28;20501;-45
2023/01/21 04:38:01;;;;;;;69.35;32.33;;;-1.60;99.90;;;;;;5078281;28;20047;-47
2023/01/21 04:40:27;;;;;;;68.65;33.05;;;-1.60;99.90;;;;;;5097389;28;20485;-46
2023/01/21 04:42:53;;;;;;;66.20;32.28;;;-1.60;99.90;;;;;;5098051;28;20252;-45
2023/01/21 04:45:18;;;;;;;69.38;32.33;;;-1.60;99.90;;;;;;5098342;28;20533;-45
2023/01/21 04:47:45;;;;;;;67.03;32.55;;;-1.60;99.90;;;;;;5096989;28;20047;-45
2023/01/21 04:50:12;;;;;;;65.88;31.45;;;-1.50;99.90;;;;;;5078848;28;20862;-45
2023/01/21 04:52:39;;;;;;;61.95;32.13;;;-1.60;99.90;;;;;;5097808;28;20849;-46
2023/01/21 04:55:05;;;;;;;69.07;33.30;;;-1.60;99.90;;;;;;5096942;28;20058;-45
2023/01/21 04:57:31;;;;;;;63.08;33.08;;;-1.60;99.90;;;;;;5096150;28;20051;-46
2023/01/21 04:59:56;;;;;;;64.82;32.95;;;-1.70;99.90;;;;;;5097112;28;20553;-46
2023/01/21 05:02:22;;;;;;;74.25;36.70;;;-1.70;99.90;;;;;;5087903;28;20093;-45
2023/01/21 05:04:48;;;;;;;69.28;33.95;;;-1.70;99.90;;;;;;5096270;28;20044;-46
2023/01/21 05:07:14;;;;;;;71.72;33.75;;;-1.70;99.90;;;;;;5095671;28;20142;-46
2023/01/21 05:09:40;;;;;;;71.15;34.97;;;-1.60;99.90;;;;;;5096186;28;20826;-45
2023/01/21 05:12:06;;;;;;;76.28;36.78;;;-1.50;99.90;;;;;;5097464;28;20132;-46
2023/01/21 05:14:32;;;;;;;68.97;33.78;;;-1.40;99.90;;;;;;5078715;28;20043;-47
2023/01/21 05:16:58;;;;;;;69.70;35.13;;;-1.50;99.90;;;;;;5096375;28;20059;-46
2023/01/21 05:19:24;;;;;;;70.57;36.25;;;-1.50;99.90;;;;;;5096200;28;20047;-46
2023/01/21 05:21:49;;;;;;;79.70;39.00;;;-1.40;99.90;;;;;;5097536;28;20607;-45
2023/01/21 05:24:17;;;;;;;79.85;39.75;;;-1.50;99.90;;;;;;5078656;28;20047;-44
2023/01/21 05:26:43;;;;;;;72.97;37.85;;;-1.40;99.90;;;;;;5062092;28;20087;-46
2023/01/21 05:29:09;;;;;;;82.47;39.35;;;-1.60;99.90;;;;;;5077885;28;20162;-45
2023/01/21 05:31:35;;;;;;;77.35;40.90;;;-1.50;99.90;;;;;;5079046;28;20069;-45
2023/01/21 05:34:00;;;;;;;88.93;40.08;;;-1.40;99.90;;;;;;5097096;28;20047;-47
2023/01/21 05:36:26;;;;;;;80.88;39.55;;;-1.40;99.90;;;;;;5096982;28;20047;-46
2023/01/21 05:38:52;;;;;;;87.25;40.83;;;-1.30;99.90;;;;;;5096326;28;20040;-45
2023/01/21 05:41:18;;;;;;;85.10;39.88;;;-1.30;99.90;;;;;;5096532;28;20048;-47
2023/01/21 05:43:44;;;;;;;78.45;37.30;;;-1.40;99.90;;;;;;5097212;28;20040;-45
2023/01/21 05:46:10;;;;;;;82.55;39.08;;;-1.40;99.90;;;;;;5097114;28;20075;-45
2023/01/21 05:48:35;;;;;;;80.35;39.17;;;-1.40;99.90;;;;;;5076490;28;20193;-45
2023/01/21 05:51:01;;;;;;;78.90;38.78;;;-1.30;99.90;;;;;;5096378;28;20127;-45
2023/01/21 05:53:26;;;;;;;74.82;39.88;;;-1.30;99.90;;;;;;5096295;28;20093;-45
2023/01/21 05:55:54;;;;;;;80.10;38.30;;;-1.40;99.90;;;;;;5078206;28;20043;-45
2023/01/21 05:58:21;;;;;;;80.53;38.08;;;-1.40;99.90;;;;;;5095507;28;20118;-45
2023/01/21 06:00:47;;;;;;;72.93;37.20;;;-1.30;99.90;;;;;;5097188;28;20490;-45
2023/01/21 06:03:16;;;;;;;78.00;38.47;;;-1.40;99.90;;;;;;5078439;28;20542;-44
2023/01/21 06:05:42;;;;;;;78.55;38.13;;;-1.50;99.90;;;;;;5096282;28;20052;-49
2023/01/21 06:08:09;;;;;;;74.50;36.97;;;-1.30;99.90;;;;;;5094713;28;20051;-46
2023/01/21 06:10:35;;;;;;;82.78;38.38;;;-1.40;99.90;;;;;;5095274;28;20044;-45
2023/01/21 06:13:01;;;;;;;73.40;36.92;;;-1.30;99.90;;;;;;5095157;28;20484;-46
2023/01/21 06:15:27;;;;;;;79.55;39.78;;;-1.40;99.90;;;;;;5095798;28;20073;-48
2023/01/21 06:17:53;;;;;;;78.28;37.38;;;-1.40;99.90;;;;;;5094242;28;20122;-46
2023/01/21 06:20:18;;;;;;;86.22;39.85;;;-1.40;99.90;;;;;;5095943;28;20399;-47
2023/01/21 06:22:44;;;;;;;89.32;40.22;;;-1.20;99.90;;;;;;5095840;28;20047;-46
2023/01/21 06:25:10;;;;;;;80.28;39.55;;;-1.10;99.90;;;;;;5095789;28;20047;-45
2023/01/21 06:27:37;;;;;;;80.97;39.25;;;-1.20;99.90;;;;;;5094196;28;20055;-49
2023/01/21 06:30:07;;;;;;;83.97;39.85;;;-1.10;99.90;;;;;;5095836;28;20383;-47
2023/01/21 06:32:33;;;;;;;82.60;39.90;;;-1.00;99.90;;;;;;5095947;28;20043;-45
2023/01/21 06:34:59;;;;;;;69.53;36.42;;;-1.10;99.90;;;;;;5096094;28;20051;-46
2023/01/21 06:37:25;;;;;;;75.15;36.75;;;-1.00;99.90;;;;;;5094090;28;20054;-47
2023/01/21 06:39:51;;;;;;;79.20;40.15;;;-1.00;99.90;;;;;;5096081;28;20224;-49
2023/01/21 06:42:17;;;;;;;77.25;38.75;;;-1.00;99.90;;;;;;5076463;28;20454;-45
2023/01/21 06:44:43;;;;;;;72.60;38.60;;;-1.00;99.90;;;;;;5095489;28;20082;-45
2023/01/21 06:47:09;;;;;;;73.10;38.67;;;-0.90;99.90;;;;;;5093613;28;20051;-47
2023/01/21 06:49:35;;;;;;;78.80;38.28;;;-0.90;99.90;;;;;;5077235;28;20051;-45
2023/01/21 06:52:00;;;;;;;75.50;40.05;;;-0.90;99.90;;;;;;5094726;28;20047;-45
2023/01/21 06:54:26;;;;;;;76.53;39.50;;;-0.90;99.90;;;;;;5076787;28;20059;-45
2023/01/21 06:56:52;;;;;;;78.18;38.53;;;-1.00;99.90;;;;;;5094217;28;20047;-46
2023/01/21 06:59:18;;;;;;;76.90;37.45;;;-0.90;99.90;;;;;;5095221;28;20055;-47
2023/01/21 07:01:43;;;;;;;75.72;39.80;;;-0.80;99.90;;;;;;5095162;28;20047;-47
2023/01/21 07:04:09;;;;;;;78.95;40.33;;;-0.80;99.90;;;;;;5095240;28;20377;-45
2023/01/21 07:06:36;;;;;;;85.82;40.35;;;-0.80;99.90;;;;;;5094100;28;20480;-45
2023/01/21 07:09:02;;;;;;;97.63;49.72;;;-0.80;99.90;;;;;;5094321;28;20438;-45
2023/01/21 07:11:28;;;;;;;121.13;67.25;;;-0.90;99.90;;;;;;5094144;28;20070;-46
2023/01/21 07:13:54;;;;;;;98.22;55.13;;;-0.90;99.90;;;;;;5095335;28;20047;-45
2023/01/21 07:16:20;;;;;;;101.97;53.90;;;-0.90;99.90;;;;;;5076050;28;20044;-46
2023/01/21 07:18:45;;;;;;;95.93;49.03;;;-0.90;99.90;;;;;;5094714;28;20051;-46
2023/01/21 07:21:11;;;;;;;83.68;44.00;;;-0.90;99.90;;;;;;5094339;28;21003;-46
2023/01/21 07:23:37;;;;;;;83.78;42.30;;;-0.90;99.90;;;;;;5094115;28;20047;-45
2023/01/21 07:26:03;;;;;;;78.93;41.97;;;-1.00;99.90;;;;;;5093179;28;20461;-46
2023/01/21 07:28:29;;;;;;;86.90;42.47;;;-1.00;99.90;;;;;;5092561;28;20044;-45
2023/01/21 07:30:58;;;;;;;72.05;38.85;;;-1.00;99.90;;;;;;5093606;28;20462;-48
2023/01/21 07:33:24;;;;;;;85.97;40.88;;;-1.10;99.90;;;;;;5093029;28;20069;-45
2023/01/21 07:35:50;;;;;;;76.03;38.72;;;-1.00;99.90;;;;;;5093913;28;20509;-46
2023/01/21 07:38:15;;;;;;;88.80;41.08;;;-1.10;99.90;;;;;;5093360;28;20043;-45
2023/01/21 07:40:41;;;;;;;81.75;40.88;;;-1.20;99.90;;;;;;5074606;28;20053;-46
2023/01/21 07:43:08;;;;;;;83.35;42.63;;;-1.10;99.90;;;;;;5093868;28;20054;-45
2023/01/21 07:45:34;;;;;;;80.43;43.05;;;-1.00;99.90;;;;;;5075747;28;20051;-45
2023/01/21 07:47:59;;;;;;;82.88;40.55;;;-1.10;99.90;;;;;;5092682;28;20560;-45
2023/01/21 07:50:26;;;;;;;77.93;39.17;;;-1.20;99.90;;;;;;5093521;28;20044;-45
2023/01/21 07:52:53;;;;;;;80.65;40.33;;;-1.30;99.90;;;;;;5093839;28;20043;-45
2023/01/21 07:55:19;;;;;;;81.78;41.42;;;-1.20;99.90;;;;;;5073946;28;20040;-45
2023/01/21 07:57:45;;;;;;;82.63;42.50;;;-1.20;99.90;;;;;;5058234;28;20043;-44
2023/01/21 08:00:11;;;;;;;84.63;41.15;;;-1.40;99.90;;;;;;5092947;28;20066;-45
2023/01/21 08:02:37;;;;;;;79.38;39.00;;;-1.30;99.90;;;;;;5092458;28;20401;-45
2023/01/21 08:05:03;;;;;;;83.45;41.33;;;-1.40;99.90;;;;;;5092500;28;20043;-46
2023/01/21 08:07:28;;;;;;;89.22;41.35;;;-1.30;99.90;;;;;;5092043;28;20040;-45
2023/01/21 08:09:54;;;;;;;84.65;41.20;;;-1.30;99.90;;;;;;5093417;28;20153;-45
2023/01/21 08:12:20;;;;;;;81.80;40.97;;;-1.30;99.90;;;;;;5093689;28;20542;-46
2023/01/21 08:14:45;;;;;;;82.18;40.38;;;-1.20;99.90;;;;;;5093630;28;20069;-45
2023/01/21 08:17:11;;;;;;;86.20;40.25;;;-1.30;99.90;;;;;;5091869;28;20108;-45
2023/01/21 08:19:36;;;;;;;80.68;38.60;;;-1.10;99.90;;;;;;5093208;28;20131;-46
2023/01/21 08:22:02;;;;;;;87.50;42.22;;;-1.10;99.90;;;;;;5093091;28;20413;-47
2023/01/21 08:24:28;;;;;;;81.38;42.13;;;-0.80;99.90;;;;;;5092607;28;20044;-45
2023/01/21 08:26:57;;;;;;;90.60;44.83;;;-0.70;99.90;;;;;;5092570;28;20047;-46
2023/01/21 08:29:23;;;;;;;85.72;41.70;;;-0.60;99.90;;;;;;5093656;28;20165;-47
2023/01/21 08:31:49;;;;;;;88.97;42.63;;;-0.60;99.90;;;;;;5093517;28;20050;-46
2023/01/21 08:34:15;;;;;;;91.28;41.65;;;-0.60;99.90;;;;;;5094941;28;20035;-46
2023/01/21 08:36:41;;;;;;;84.95;42.95;;;-0.70;99.90;;;;;;5093147;28;20048;-46
2023/01/21 08:39:08;;;;;;;86.75;41.60;;;-0.60;99.90;;;;;;5093006;28;20046;-46
2023/01/21 08:41:33;;;;;;;85.68;40.50;;;-0.80;99.90;;;;;;5093609;28;20359;-46
2023/01/21 08:43:59;;;;;;;80.68;39.28;;;-0.80;99.90;;;;;;5074746;28;20048;-45
2023/01/21 08:46:25;;;;;;;82.97;38.92;;;-0.70;99.90;;;;;;5092790;28;20048;-46
2023/01/21 08:48:51;;;;;;;83.78;40.38;;;-0.80;99.90;;;;;;5092870;28;20482;-44
2023/01/21 08:51:16;;;;;;;76.70;37.83;;;-0.90;99.90;;;;;;5094059;28;20285;-46
2023/01/21 08:53:42;;;;;;;82.07;38.97;;;-0.90;99.90;;;;;;5092544;28;20039;-47
2023/01/21 08:56:08;;;;;;;81.10;39.47;;;-0.80;99.90;;;;;;5091570;28;20050;-47
2023/01/21 08:58:34;;;;;;;78.78;39.20;;;-0.90;99.90;;;;;;5091426;28;20630;-45
2023/01/21 09:01:11;;;;;;;79.20;40.53;;;-0.80;99.90;;;;;;5092147;28;20118;-46
2023/01/21 09:03:36;;;;;;;86.15;42.13;;;-0.90;99.90;;;;;;5093020;28;20052;-47
2023/01/21 09:06:04;;;;;;;80.03;40.38;;;-0.80;99.90;;;;;;5074673;28;20058;-46
2023/01/21 09:08:31;;;;;;;85.97;42.53;;;-0.90;99.90;;;;;;5081406;28;20127;-45
2023/01/21 09:11:01;;;;;;;85.72;41.47;;;-0.80;99.90;;;;;;5093580;28;20047;-46
2023/01/21 09:13:36;;;;;;;76.03;41.13;;;-0.70;99.90;;;;;;5092171;28;20083;-45
2023/01/21 09:16:06;;;;;;;80.50;40.63;;;-0.70;99.90;;;;;;5091769;28;20130;-46
2023/01/21 09:18:32;;;;;;;76.88;39.05;;;-0.70;99.90;;;;;;5095657;28;20580;-46
2023/01/21 09:21:02;;;;;;;76.13;38.08;;;-0.60;99.90;;;;;;5096000;28;20087;-48
2023/01/21 09:23:31;;;;;;;69.10;36.58;;;-0.50;99.90;;;;;;5084421;28;20047;-45
2023/01/21 09:26:03;;;;;;;71.97;36.78;;;-0.50;99.90;;;;;;5097006;28;20039;-46
2023/01/21 09:28:29;;;;;;;67.13;37.00;;;-0.60;99.90;;;;;;5096466;28;20078;-46
2023/01/21 09:31:00;;;;;;;74.60;38.03;;;-0.50;99.90;;;;;;5078503;28;20122;-44
2023/01/21 09:33:28;;;;;;;77.18;39.33;;;-0.60;99.90;;;;;;5096281;28;20047;-46
2023/01/21 09:35:59;;;;;;;65.80;37.35;;;-0.50;99.90;;;;;;5078738;28;20113;-46
2023/01/21 09:38:26;;;;;;;65.10;36.10;;;-0.40;99.90;;;;;;5095415;28;20818;-45
2023/01/21 09:40:53;;;;;;;70.57;35.97;;;-0.40;99.90;;;;;;5096034;28;20506;-45
2023/01/21 09:43:36;;;;;;;68.20;37.05;;;-0.30;99.90;;;;;;5096732;28;20126;-46
2023/01/21 09:46:06;;;;;;;69.60;36.43;;;-0.40;99.90;;;;;;5093783;28;20050;-46
2023/01/21 09:48:38;;;;;;;62.33;33.65;;;-0.30;99.90;;;;;;5095840;28;20036;-45
2023/01/21 09:51:18;;;;;;;69.75;38.42;;;-0.30;99.90;;;;;;5096329;28;20043;-46
2023/01/21 09:53:49;;;;;;;63.35;34.58;;;-0.30;99.90;;;;;;5095725;28;20589;-46
2023/01/21 09:56:34;;;;;;;68.85;37.90;;;-0.20;99.90;;;;;;5095959;28;20035;-46
2023/01/21 09:59:07;;;;;;;71.32;38.80;;;-0.20;99.90;;;;;;5092518;28;20398;-45
2023/01/21 10:01:36;;;;;;;69.65;34.75;;;-0.10;99.90;;;;;;5095987;28;20163;-45
2023/01/21 10:04:02;;;;;;;54.70;33.13;;;0.00;99.90;;;;;;5096567;28;20055;-47
2023/01/21 10:06:47;;;;;;;70.65;37.60;;;0.00;99.90;;;;;;5096013;28;20652;-46
2023/01/21 10:09:50;;;;;;;67.60;36.95;;;0.00;99.90;;;;;;5096369;28;20058;-45
2023/01/21 10:12:49;;;;;;;65.70;36.10;;;0.00;99.90;;;;;;5093833;28;20502;-45
2023/01/21 10:15:15;;;;;;;68.13;37.75;;;0.20;99.90;;;;;;5096875;28;20293;-45
2023/01/21 10:17:56;;;;;;;69.05;37.15;;;0.10;99.90;;;;;;5094438;28;20449;-46
2023/01/21 10:20:49;;;;;;;70.45;39.50;;;0.20;99.90;;;;;;5095992;28;20554;-46
2023/01/21 10:23:56;;;;;;;70.80;39.85;;;0.10;99.90;;;;;;5096239;28;20520;-45
2023/01/21 10:26:25;;;;;;;71.63;37.97;;;0.30;99.90;;;;;;5094929;28;20054;-46
2023/01/21 10:28:53;;;;;;;64.40;34.22;;;0.30;99.90;;;;;;5094665;28;20489;-50
2023/01/21 10:31:32;;;;;;;74.47;38.90;;;0.40;99.90;;;;;;5095348;28;20600;-47
2023/01/21 10:33:58;;;;;;;70.60;39.30;;;0.40;99.90;;;;;;5095481;28;20525;-47
2023/01/21 10:36:48;;;;;;;71.90;38.80;;;0.50;99.90;;;;;;5095166;28;20236;-46
2023/01/21 10:39:23;;;;;;;62.63;36.00;;;0.60;99.90;;;;;;5095682;28;20083;-46
2023/01/21 10:41:54;;;;;;;61.85;35.60;;;0.60;99.90;;;;;;5078125;28;20516;-47
2023/01/21 10:44:49;;;;;;;68.03;37.35;;;0.50;99.90;;;;;;5096229;28;20497;-46
2023/01/21 10:47:45;;;;;;;65.57;36.25;;;0.60;99.90;;;;;;5094290;28;20051;-45
2023/01/21 10:50:35;;;;;;;66.47;35.78;;;0.60;99.90;;;;;;5095439;28;20044;-46
2023/01/21 10:53:12;;;;;;;64.45;35.03;;;0.70;99.90;;;;;;5095561;28;20798;-45
2023/01/21 10:55:59;;;;;;;65.15;37.20;;;0.60;99.90;;;;;;5094667;28;20113;-45
2023/01/21 10:58:31;;;;;;;66.30;35.78;;;0.80;99.90;;;;;;5095176;28;20062;-46
2023/01/21 11:01:01;;;;;;;59.13;34.03;;;0.70;99.90;;;;;;5095493;28;20134;-46
2023/01/21 11:03:40;;;;;;;65.38;34.63;;;0.80;99.90;;;;;;5095070;28;20524;-47
2023/01/21 11:06:08;;;;;;;64.13;34.72;;;0.80;99.90;;;;;;5094677;28;20047;-44
2023/01/21 11:08:34;;;;;;;57.25;34.75;;;0.70;99.90;;;;;;5076061;28;20078;-44
2023/01/21 11:11:00;;;;;;;66.60;34.72;;;0.80;99.90;;;;;;5095448;28;20506;-45
2023/01/21 11:13:26;;;;;;;56.80;33.63;;;0.80;99.90;;;;;;5095443;28;20055;-45
2023/01/21 11:15:53;;;;;;;59.22;32.38;;;0.80;99.90;;;;;;5089602;28;20049;-47
2023/01/21 11:18:35;;;;;;;59.88;35.00;;;0.90;99.90;;;;;;5094157;28;20051;-47
2023/01/21 11:21:17;;;;;;;56.65;33.92;;;0.90;99.90;;;;;;5087705;28;20043;-46
2023/01/21 11:23:55;;;;;;;66.95;37.38;;;1.00;99.90;;;;;;5076397;28;20683;-46
2023/01/21 11:26:26;;;;;;;60.45;34.40;;;1.00;99.90;;;;;;5073835;28;20796;-46
2023/01/21 11:29:15;;;;;;;58.38;34.15;;;1.10;99.90;;;;;;5076630;28;20101;-45
2023/01/21 11:31:43;;;;;;;61.10;35.67;;;1.00;99.90;;;;;;5065231;28;20059;-46
2023/01/21 11:34:17;;;;;;;56.60;31.90;;;1.20;99.90;;;;;;5075765;28;20561;-45
2023/01/21 11:37:15;;;;;;;54.92;33.20;;;1.20;99.90;;;;;;5075395;28;20178;-46
2023/01/21 11:39:57;;;;;;;53.72;31.45;;;1.30;99.90;;;;;;5047541;28;20437;-45
2023/01/21 11:42:23;;;;;;;53.03;29.73;;;1.30;99.90;;;;;;5075331;28;20062;-47
2023/01/21 11:45:21;;;;;;;50.10;28.67;;;1.20;99.90;;;;;;5094118;28;20094;-47
2023/01/21 11:47:47;;;;;;;54.50;31.45;;;1.30;99.90;;;;;;5074439;28;20102;-45
2023/01/21 11:50:41;;;;;;;54.20;31.55;;;1.30;99.90;;;;;;5093858;28;20040;-46
2023/01/21 11:53:11;;;;;;;51.40;30.38;;;1.30;99.90;;;;;;5090650;28;20228;-47
2023/01/21 11:55:41;;;;;;;50.85;30.27;;;1.40;99.90;;;;;;5093713;28;20082;-45
2023/01/21 11:58:17;;;;;;;54.50;31.45;;;1.30;99.90;;;;;;5092055;28;20131;-46
2023/01/21 12:00:46;;;;;;;48.13;30.98;;;1.50;99.90;;;;;;5093198;28;20040;-46
2023/01/21 12:03:18;;;;;;;53.80;30.48;;;1.50;99.90;;;;;;5092525;28;20089;-45
2023/01/21 12:05:48;;;;;;;47.58;30.45;;;1.50;99.90;;;;;;5093650;28;20122;-47
2023/01/21 12:08:29;;;;;;;53.70;31.15;;;1.50;99.90;;;;;;5092985;28;20455;-47
2023/01/21 12:11:00;;;;;;;51.10;31.13;;;1.50;99.90;;;;;;5094035;28;20035;-45
2023/01/21 12:13:45;;;;;;;47.00;27.70;;;1.60;99.90;;;;;;5093524;28;20057;-45
2023/01/21 12:16:33;;;;;;;51.35;31.17;;;1.70;99.90;;;;;;5092345;28;20051;-46
2023/01/21 12:19:24;;;;;;;47.67;29.13;;;1.70;99.90;;;;;;5093485;28;20393;-45
2023/01/21 12:22:08;;;;;;;49.53;30.63;;;1.70;99.90;;;;;;5063368;28;20489;-46
2023/01/21 12:24:46;;;;;;;46.85;30.30;;;1.70;99.90;;;;;;5092766;28;20558;-47
2023/01/21 12:27:28;;;;;;;48.05;29.80;;;1.80;99.90;;;;;;5091655;28;20092;-45
2023/01/21 12:30:18;;;;;;;48.80;30.55;;;1.70;99.90;;;;;;5092561;28;20075;-45
2023/01/21 12:33:22;;;;;;;51.75;31.77;;;1.80;99.90;;;;;;5092931;28;20108;-47
2023/01/21 12:35:54;;;;;;;35.88;23.25;;;1.80;99.90;;;;;;5029712;28;20926;-47
2023/01/21 12:38:30;;;;;;;48.33;29.27;;;1.80;99.90;;;;;;5029830;28;20384;-47
2023/01/21 12:41:04;;;;;;;44.75;28.58;;;1.80;99.90;;;;;;5030214;28;20083;-47
2023/01/21 12:43:48;;;;;;;51.85;33.83;;;2.00;99.90;;;;;;5029288;28;20388;-46
2023/01/21 12:46:19;;;;;;;44.45;29.00;;;2.00;99.90;;;;;;5018054;28;20427;-47
2023/01/21 12:48:45;;;;;;;50.42;32.38;;;2.00;99.90;;;;;;5030629;28;20045;-47